sensor_id;sensor_type;location;lat;lon;timestamp;pressure;altitude;pressure_sealevel;temperature;humidity
51715;BME280;39115;59.332;18.034;2023-12-28T00:01:23;100986.19;;;-3.80;63.70
51715;BME280;39115;59.332;18.034;2023-12-28T00:03:43;100994.03;;;-3.82;63.35
51715;BME280;39115;59.332;18.034;2023-12-28T00:06:04;100992.31;;;-3.81;63.95
51715;BME280;39115;59.332;18.034;2023-12-28T00:08:27;100993.19;;;-3.82;63.21
51715;BME280;39115;59.332;18.034;2023-12-28T00:10:47;100992.31;;;-3.81;63.13
51715;BME280;39115;59.332;18.034;2023-12-28T00:13:08;100988.81;;;-3.82;63.35
51715;BME280;39115;59.332;18.034;2023-12-28T00:15:28;100987.09;;;-3.83;63.20
51715;BME280;39115;59.332;18.034;2023-12-28T00:17:49;100989.72;;;-3.83;63.26
51715;BME280;39115;59.332;18.034;2023-12-28T00:20:10;100984.50;;;-3.83;63.14
51715;BME280;39115;59.332;18.034;2023-12-28T00:22:31;100974.09;;;-3.83;63.56
51715;BME280;39115;59.332;18.034;2023-12-28T00:24:51;100970.66;;;-3.83;63.43
51715;BME280;39115;59.332;18.034;2023-12-28T00:27:12;100974.16;;;-3.84;63.47
51715;BME280;39115;59.332;18.034;2023-12-28T00:29:32;100966.34;;;-3.84;63.37
51715;BME280;39115;59.332;18.034;2023-12-28T00:31:54;100967.19;;;-3.84;63.79
51715;BME280;39115;59.332;18.034;2023-12-28T00:34:15;100963.75;;;-3.84;63.54
51715;BME280;39115;59.332;18.034;2023-12-28T00:36:35;100960.25;;;-3.85;63.78
51715;BME280;39115;59.332;18.034;2023-12-28T00:38:57;100963.75;;;-3.84;63.53
51715;BME280;39115;59.332;18.034;2023-12-28T00:41:17;100962.03;;;-3.85;63.17
51715;BME280;39115;59.332;18.034;2023-12-28T00:43:38;100974.19;;;-3.86;63.27
51715;BME280;39115;59.332;18.034;2023-12-28T00:45:58;100972.44;;;-3.85;63.39
51715;BME280;39115;59.332;18.034;2023-12-28T00:48:18;100981.13;;;-3.86;63.49
51715;BME280;39115;59.332;18.034;2023-12-28T00:50:39;100972.44;;;-3.85;63.47
51715;BME280;39115;59.332;18.034;2023-12-28T00:53:00;100966.38;;;-3.86;63.11
51715;BME280;39115;59.332;18.034;2023-12-28T00:55:20;100967.22;;;-3.85;63.35
51715;BME280;39115;59.332;18.034;2023-12-28T00:57:41;100969.84;;;-3.85;63.69
51715;BME280;39115;59.332;18.034;2023-12-28T01:00:01;100965.56;;;-3.88;63.67
51715;BME280;39115;59.332;18.034;2023-12-28T01:02:22;100962.06;;;-3.87;63.08
51715;BME280;39115;59.332;18.034;2023-12-28T01:04:43;100955.16;;;-3.88;63.63
51715;BME280;39115;59.332;18.034;2023-12-28T01:07:03;100948.19;;;-3.87;63.20
51715;BME280;39115;59.332;18.034;2023-12-28T01:09:26;100943.00;;;-3.87;63.98
51715;BME280;39115;59.332;18.034;2023-12-28T01:11:46;100930.88;;;-3.88;63.49
51715;BME280;39115;59.332;18.034;2023-12-28T01:14:07;100910.94;;;-3.88;63.05
51715;BME280;39115;59.332;18.034;2023-12-28T01:16:27;100911.81;;;-3.89;63.55
51715;BME280;39115;59.332;18.034;2023-12-28T01:18:49;100915.25;;;-3.88;63.58
51715;BME280;39115;59.332;18.034;2023-12-28T01:21:09;100910.97;;;-3.89;63.38
51715;BME280;39115;59.332;18.034;2023-12-28T01:23:30;100913.59;;;-3.89;63.98
51715;BME280;39115;59.332;18.034;2023-12-28T01:25:50;100904.88;;;-3.88;63.44
51715;BME280;39115;59.332;18.034;2023-12-28T01:28:11;100893.63;;;-3.89;63.59
51715;BME280;39115;59.332;18.034;2023-12-28T01:30:32;100900.59;;;-3.91;63.10
51715;BME280;39115;59.332;18.034;2023-12-28T01:32:54;100896.25;;;-3.90;63.23
51715;BME280;39115;59.332;18.034;2023-12-28T01:35:15;100888.47;;;-3.90;63.05
51715;BME280;39115;59.332;18.034;2023-12-28T01:37:35;100876.34;;;-3.91;63.41
51715;BME280;39115;59.332;18.034;2023-12-28T01:39:56;100878.06;;;-3.92;63.23
51715;BME280;39115;59.332;18.034;2023-12-28T01:42:16;100875.47;;;-3.92;63.30
51715;BME280;39115;59.332;18.034;2023-12-28T01:44:37;100870.28;;;-3.92;63.20
51715;BME280;39115;59.332;18.034;2023-12-28T01:46:58;100867.66;;;-3.92;63.22
51715;BME280;39115;59.332;18.034;2023-12-28T01:49:19;100864.22;;;-3.92;63.50
51715;BME280;39115;59.332;18.034;2023-12-28T01:51:40;100854.66;;;-3.92;63.48
51715;BME280;39115;59.332;18.034;2023-12-28T01:54:03;100848.63;;;-3.92;63.83
51715;BME280;39115;59.332;18.034;2023-12-28T01:56:24;100842.56;;;-3.93;63.55
51715;BME280;39115;59.332;18.034;2023-12-28T01:58:46;100839.97;;;-3.93;63.30
51715;BME280;39115;59.332;18.034;2023-12-28T02:01:10;100837.38;;;-3.93;63.44
51715;BME280;39115;59.332;18.034;2023-12-28T02:03:30;100846.91;;;-3.93;62.90
51715;BME280;39115;59.332;18.034;2023-12-28T02:05:52;100846.06;;;-3.94;63.13
51715;BME280;39115;59.332;18.034;2023-12-28T02:08:13;100841.72;;;-3.93;63.08
51715;BME280;39115;59.332;18.034;2023-12-28T02:10:33;100832.19;;;-3.94;63.61
51715;BME280;39115;59.332;18.034;2023-12-28T02:12:54;100820.94;;;-3.95;63.06
51715;BME280;39115;59.332;18.034;2023-12-28T02:15:16;100809.66;;;-3.95;63.48
51715;BME280;39115;59.332;18.034;2023-12-28T02:17:59;100805.34;;;-3.95;63.79
51715;BME280;39115;59.332;18.034;2023-12-28T02:20:22;100803.63;;;-3.96;63.51
51715;BME280;39115;59.332;18.034;2023-12-28T02:22:45;100789.78;;;-3.97;63.17
51715;BME280;39115;59.332;18.034;2023-12-28T02:25:07;100794.94;;;-3.95;63.19
51715;BME280;39115;59.332;18.034;2023-12-28T02:27:28;100794.06;;;-3.95;63.08
51715;BME280;39115;59.332;18.034;2023-12-28T02:29:49;100779.38;;;-3.97;63.47
51715;BME280;39115;59.332;18.034;2023-12-28T02:32:09;100785.44;;;-3.96;63.59
51715;BME280;39115;59.332;18.034;2023-12-28T02:34:34;100781.09;;;-3.97;63.40
51715;BME280;39115;59.332;18.034;2023-12-28T02:36:57;100759.47;;;-3.98;63.31
51715;BME280;39115;59.332;18.034;2023-12-28T02:39:19;100750.78;;;-3.97;63.50
51715;BME280;39115;59.332;18.034;2023-12-28T02:41:42;100744.69;;;-3.97;63.61
51715;BME280;39115;59.332;18.034;2023-12-28T02:44:04;100742.09;;;-3.97;63.57
51715;BME280;39115;59.332;18.034;2023-12-28T02:46:25;100730.84;;;-3.98;63.67
51715;BME280;39115;59.332;18.034;2023-12-28T02:48:45;100731.69;;;-3.97;63.34
51715;BME280;39115;59.332;18.034;2023-12-28T02:51:06;100727.38;;;-3.98;63.00
51715;BME280;39115;59.332;18.034;2023-12-28T02:53:26;100721.34;;;-3.99;63.20
51715;BME280;39115;59.332;18.034;2023-12-28T02:55:47;100723.06;;;-3.99;63.22
51715;BME280;39115;59.332;18.034;2023-12-28T02:58:07;100721.34;;;-3.99;63.51
51715;BME280;39115;59.332;18.034;2023-12-28T03:00:28;100702.28;;;-3.99;63.36
51715;BME280;39115;59.332;18.034;2023-12-28T03:02:49;100694.47;;;-3.99;63.38
51715;BME280;39115;59.332;18.034;2023-12-28T03:05:09;100694.47;;;-3.99;63.30
51715;BME280;39115;59.332;18.034;2023-12-28T03:07:30;100688.47;;;-4.01;63.27
51715;BME280;39115;59.332;18.034;2023-12-28T03:09:50;100691.88;;;-3.99;63.55
51715;BME280;39115;59.332;18.034;2023-12-28T03:12:11;100686.66;;;-3.99;63.59
51715;BME280;39115;59.332;18.034;2023-12-28T03:14:32;100680.63;;;-4.00;62.95
51715;BME280;39115;59.332;18.034;2023-12-28T03:16:52;100682.34;;;-4.00;63.48
51715;BME280;39115;59.332;18.034;2023-12-28T03:19:13;100688.44;;;-4.00;63.15
51715;BME280;39115;59.332;18.034;2023-12-28T03:21:33;100671.94;;;-4.00;63.14
51715;BME280;39115;59.332;18.034;2023-12-28T03:23:58;100670.28;;;-4.01;63.39
51715;BME280;39115;59.332;18.034;2023-12-28T03:26:18;100672.00;;;-4.02;63.88
51715;BME280;39115;59.332;18.034;2023-12-28T03:28:40;100669.41;;;-4.02;63.00
51715;BME280;39115;59.332;18.034;2023-12-28T03:31:02;100669.34;;;-4.00;63.56
51715;BME280;39115;59.332;18.034;2023-12-28T03:33:23;100672.88;;;-4.01;63.25
51715;BME280;39115;59.332;18.034;2023-12-28T03:35:44;100668.50;;;-4.01;63.88
51715;BME280;39115;59.332;18.034;2023-12-28T03:38:04;100662.47;;;-4.01;63.17
51715;BME280;39115;59.332;18.034;2023-12-28T03:40:25;100656.41;;;-4.02;63.13
51715;BME280;39115;59.332;18.034;2023-12-28T03:42:45;100652.06;;;-4.01;63.30
51715;BME280;39115;59.332;18.034;2023-12-28T03:45:06;100643.41;;;-4.02;63.27
51715;BME280;39115;59.332;18.034;2023-12-28T03:47:27;100643.41;;;-4.02;63.62
51715;BME280;39115;59.332;18.034;2023-12-28T03:49:47;100645.16;;;-4.02;63.20
51715;BME280;39115;59.332;18.034;2023-12-28T03:52:08;100644.28;;;-4.03;63.16
51715;BME280;39115;59.332;18.034;2023-12-28T03:54:28;100639.97;;;-4.02;63.53
51715;BME280;39115;59.332;18.034;2023-12-28T03:56:49;100633.88;;;-4.03;63.51
51715;BME280;39115;59.332;18.034;2023-12-28T03:59:10;100629.56;;;-4.02;63.29
51715;BME280;39115;59.332;18.034;2023-12-28T04:01:30;100623.47;;;-4.03;63.43
51715;BME280;39115;59.332;18.034;2023-12-28T04:03:51;100623.47;;;-4.03;63.22
51715;BME280;39115;59.332;18.034;2023-12-28T04:06:12;100621.75;;;-4.02;63.32
51715;BME280;39115;59.332;18.034;2023-12-28T04:08:35;100618.34;;;-4.04;63.09
51715;BME280;39115;59.332;18.034;2023-12-28T04:10:56;100618.25;;;-4.01;63.53
51715;BME280;39115;59.332;18.034;2023-12-28T04:13:16;100606.16;;;-4.02;63.31
51715;BME280;39115;59.332;18.034;2023-12-28T04:15:37;100600.94;;;-4.02;63.33
51715;BME280;39115;59.332;18.034;2023-12-28T04:17:59;100592.34;;;-4.04;63.11
51715;BME280;39115;59.332;18.034;2023-12-28T04:20:19;100587.94;;;-4.02;63.63
51715;BME280;39115;59.332;18.034;2023-12-28T04:22:40;100585.34;;;-4.02;63.10
51715;BME280;39115;59.332;18.034;2023-12-28T04:25:03;100581.88;;;-4.03;63.05
51715;BME280;39115;59.332;18.034;2023-12-28T04:27:24;100579.28;;;-4.03;63.43
51715;BME280;39115;59.332;18.034;2023-12-28T04:29:45;100570.63;;;-4.03;63.29
51715;BME280;39115;59.332;18.034;2023-12-28T04:32:06;100567.16;;;-4.04;63.28
51715;BME280;39115;59.332;18.034;2023-12-28T04:34:27;100565.44;;;-4.03;63.17
51715;BME280;39115;59.332;18.034;2023-12-28T04:36:47;100555.03;;;-4.03;63.43
51715;BME280;39115;59.332;18.034;2023-12-28T04:39:09;100542.88;;;-4.03;63.18
51715;BME280;39115;59.332;18.034;2023-12-28T04:41:29;100531.63;;;-4.03;63.06
51715;BME280;39115;59.332;18.034;2023-12-28T04:43:50;100517.75;;;-4.04;63.32
51715;BME280;39115;59.332;18.034;2023-12-28T04:46:11;100507.34;;;-4.04;63.56
51715;BME280;39115;59.332;18.034;2023-12-28T04:48:32;100487.41;;;-4.03;63.32
51715;BME280;39115;59.332;18.034;2023-12-28T04:50:52;100487.41;;;-4.03;63.29
51715;BME280;39115;59.332;18.034;2023-12-28T04:53:13;100477.03;;;-4.03;63.39
51715;BME280;39115;59.332;18.034;2023-12-28T04:55:33;100471.81;;;-4.03;63.46
51715;BME280;39115;59.332;18.034;2023-12-28T04:57:54;100464.03;;;-4.03;63.43
51715;BME280;39115;59.332;18.034;2023-12-28T05:00:14;100439.75;;;-4.04;63.22
51715;BME280;39115;59.332;18.034;2023-12-28T05:02:35;100433.72;;;-4.04;63.52
51715;BME280;39115;59.332;18.034;2023-12-28T05:04:56;100432.81;;;-4.03;62.98
51715;BME280;39115;59.332;18.034;2023-12-28T05:07:16;100414.66;;;-4.05;63.62
51715;BME280;39115;59.332;18.034;2023-12-28T05:09:36;100414.66;;;-4.05;63.10
51715;BME280;39115;59.332;18.034;2023-12-28T05:11:57;100416.34;;;-4.04;63.13
51715;BME280;39115;59.332;18.034;2023-12-28T05:14:18;100408.53;;;-4.04;63.52
51715;BME280;39115;59.332;18.034;2023-12-28T05:16:38;100402.50;;;-4.04;63.84
51715;BME280;39115;59.332;18.034;2023-12-28T05:18:59;100397.31;;;-4.04;62.91
51715;BME280;39115;59.332;18.034;2023-12-28T05:21:19;100382.53;;;-4.04;63.82
51715;BME280;39115;59.332;18.034;2023-12-28T05:23:41;100380.81;;;-4.03;62.92
51715;BME280;39115;59.332;18.034;2023-12-28T05:26:01;100382.53;;;-4.04;63.21
51715;BME280;39115;59.332;18.034;2023-12-28T05:28:22;100372.13;;;-4.04;63.29
51715;BME280;39115;59.332;18.034;2023-12-28T05:30:43;100373.06;;;-4.05;63.49
51715;BME280;39115;59.332;18.034;2023-12-28T05:33:03;100369.53;;;-4.04;63.63
51715;BME280;39115;59.332;18.034;2023-12-28T05:35:24;100363.50;;;-4.04;63.62
51715;BME280;39115;59.332;18.034;2023-12-28T05:37:44;100351.34;;;-4.04;63.63
51715;BME280;39115;59.332;18.034;2023-12-28T05:40:05;100339.25;;;-4.05;63.79
51715;BME280;39115;59.332;18.034;2023-12-28T05:42:26;100336.66;;;-4.05;63.92
51715;BME280;39115;59.332;18.034;2023-12-28T05:44:47;100336.75;;;-4.08;63.43
51715;BME280;39115;59.332;18.034;2023-12-28T05:47:07;100348.72;;;-4.04;63.20
51715;BME280;39115;59.332;18.034;2023-12-28T05:49:28;100340.09;;;-4.04;63.60
51715;BME280;39115;59.332;18.034;2023-12-28T05:51:49;100341.81;;;-4.03;63.69
51715;BME280;39115;59.332;18.034;2023-12-28T05:54:09;100337.44;;;-4.03;63.52
51715;BME280;39115;59.332;18.034;2023-12-28T05:56:30;100339.19;;;-4.03;63.63
51715;BME280;39115;59.332;18.034;2023-12-28T05:58:50;100340.94;;;-4.04;62.92
51715;BME280;39115;59.332;18.034;2023-12-28T06:01:11;100336.59;;;-4.03;63.44
51715;BME280;39115;59.332;18.034;2023-12-28T06:03:32;100334.00;;;-4.03;63.34
51715;BME280;39115;59.332;18.034;2023-12-28T06:05:52;100333.09;;;-4.02;63.53
51715;BME280;39115;59.332;18.034;2023-12-28T06:08:13;100336.59;;;-4.03;63.63
51715;BME280;39115;59.332;18.034;2023-12-28T06:10:33;100331.41;;;-4.03;63.30
51715;BME280;39115;59.332;18.034;2023-12-28T06:12:54;100326.19;;;-4.03;63.62
51715;BME280;39115;59.332;18.034;2023-12-28T06:15:14;100329.63;;;-4.03;62.96
51715;BME280;39115;59.332;18.034;2023-12-28T06:17:35;100323.59;;;-4.03;62.99
51715;BME280;39115;59.332;18.034;2023-12-28T06:19:55;100321.00;;;-4.03;63.07
51715;BME280;39115;59.332;18.034;2023-12-28T06:22:16;100321.84;;;-4.03;63.37
51715;BME280;39115;59.332;18.034;2023-12-28T06:24:39;100325.31;;;-4.02;63.18
51715;BME280;39115;59.332;18.034;2023-12-28T06:27:00;100322.69;;;-4.02;63.22
51715;BME280;39115;59.332;18.034;2023-12-28T06:29:21;100317.50;;;-4.02;63.40
51715;BME280;39115;59.332;18.034;2023-12-28T06:31:41;100318.34;;;-4.02;63.18
51715;BME280;39115;59.332;18.034;2023-12-28T06:34:05;100318.34;;;-4.02;63.21
51715;BME280;39115;59.332;18.034;2023-12-28T06:36:26;100315.72;;;-4.02;63.15
51715;BME280;39115;59.332;18.034;2023-12-28T06:38:47;100319.19;;;-4.01;63.03
51715;BME280;39115;59.332;18.034;2023-12-28T06:41:11;100324.41;;;-4.01;63.57
51715;BME280;39115;59.332;18.034;2023-12-28T06:43:32;100316.59;;;-4.01;63.21
51715;BME280;39115;59.332;18.034;2023-12-28T06:45:53;100313.13;;;-4.02;63.52
51715;BME280;39115;59.332;18.034;2023-12-28T06:48:13;100318.28;;;-4.00;63.24
51715;BME280;39115;59.332;18.034;2023-12-28T06:50:34;100314.84;;;-4.01;63.23
51715;BME280;39115;59.332;18.034;2023-12-28T06:52:54;100311.41;;;-4.01;63.27
51715;BME280;39115;59.332;18.034;2023-12-28T06:55:15;100312.25;;;-4.01;63.13
51715;BME280;39115;59.332;18.034;2023-12-28T06:57:35;100306.19;;;-4.01;63.09
51715;BME280;39115;59.332;18.034;2023-12-28T06:59:56;100300.94;;;-4.00;63.18
51715;BME280;39115;59.332;18.034;2023-12-28T07:02:20;100298.41;;;-4.01;62.83
51715;BME280;39115;59.332;18.034;2023-12-28T07:04:40;100284.47;;;-4.00;63.21
51715;BME280;39115;59.332;18.034;2023-12-28T07:07:01;100267.13;;;-4.00;63.35
51715;BME280;39115;59.332;18.034;2023-12-28T07:09:21;100258.47;;;-4.00;63.50
51715;BME280;39115;59.332;18.034;2023-12-28T07:11:42;100259.31;;;-4.00;63.04
51715;BME280;39115;59.332;18.034;2023-12-28T07:14:02;100248.94;;;-4.00;63.38
51715;BME280;39115;59.332;18.034;2023-12-28T07:16:23;100239.34;;;-3.99;63.40
51715;BME280;39115;59.332;18.034;2023-12-28T07:18:44;100231.56;;;-3.99;63.04
51715;BME280;39115;59.332;18.034;2023-12-28T07:21:05;100215.13;;;-4.00;63.45
51715;BME280;39115;59.332;18.034;2023-12-28T07:23:26;100218.56;;;-3.99;63.52
51715;BME280;39115;59.332;18.034;2023-12-28T07:25:47;100214.25;;;-4.00;63.65
51715;BME280;39115;59.332;18.034;2023-12-28T07:28:08;100209.03;;;-3.99;63.53
51715;BME280;39115;59.332;18.034;2023-12-28T07:30:28;100199.47;;;-3.98;63.16
51715;BME280;39115;59.332;18.034;2023-12-28T07:32:49;100198.63;;;-3.99;63.21
51715;BME280;39115;59.332;18.034;2023-12-28T07:35:10;100195.97;;;-3.97;63.14
51715;BME280;39115;59.332;18.034;2023-12-28T07:37:31;100197.66;;;-3.96;62.87
51715;BME280;39115;59.332;18.034;2023-12-28T07:39:52;100191.63;;;-3.97;62.99
51715;BME280;39115;59.332;18.034;2023-12-28T07:42:12;100189.03;;;-3.97;62.99
51715;BME280;39115;59.332;18.034;2023-12-28T07:44:33;100187.25;;;-3.96;63.44
51715;BME280;39115;59.332;18.034;2023-12-28T07:46:54;100176.84;;;-3.96;63.51
51715;BME280;39115;59.332;18.034;2023-12-28T07:49:14;100169.88;;;-3.95;63.16
51715;BME280;39115;59.332;18.034;2023-12-28T07:51:35;100174.25;;;-3.96;63.50
51715;BME280;39115;59.332;18.034;2023-12-28T07:53:55;100155.16;;;-3.95;63.43
51715;BME280;39115;59.332;18.034;2023-12-28T07:56:16;100142.97;;;-3.94;63.49
51715;BME280;39115;59.332;18.034;2023-12-28T07:58:36;100144.69;;;-3.93;63.18
51715;BME280;39115;59.332;18.034;2023-12-28T08:00:59;100129.06;;;-3.93;63.26
51715;BME280;39115;59.332;18.034;2023-12-28T08:03:20;100116.94;;;-3.93;63.00
51715;BME280;39115;59.332;18.034;2023-12-28T08:05:41;100114.34;;;-3.93;63.50
51715;BME280;39115;59.332;18.034;2023-12-28T08:08:02;100103.00;;;-3.92;63.17
51715;BME280;39115;59.332;18.034;2023-12-28T08:10:22;100092.59;;;-3.92;62.87
51715;BME280;39115;59.332;18.034;2023-12-28T08:12:43;100083.06;;;-3.91;62.92
51715;BME280;39115;59.332;18.034;2023-12-28T08:15:04;100083.00;;;-3.90;63.62
51715;BME280;39115;59.332;18.034;2023-12-28T08:17:24;100070.00;;;-3.90;63.46
51715;BME280;39115;59.332;18.034;2023-12-28T08:19:45;100054.38;;;-3.90;63.51
51715;BME280;39115;59.332;18.034;2023-12-28T08:22:05;100040.47;;;-3.89;63.41
51715;BME280;39115;59.332;18.034;2023-12-28T08:24:26;100034.44;;;-3.89;62.92
51715;BME280;39115;59.332;18.034;2023-12-28T08:26:47;100031.78;;;-3.88;63.20
51715;BME280;39115;59.332;18.034;2023-12-28T08:29:07;100017.88;;;-3.87;63.18
51715;BME280;39115;59.332;18.034;2023-12-28T08:31:28;100007.47;;;-3.87;63.29
51715;BME280;39115;59.332;18.034;2023-12-28T08:33:50;100003.03;;;-3.85;63.29
51715;BME280;39115;59.332;18.034;2023-12-28T08:36:10;99996.09;;;-3.84;63.60
51715;BME280;39115;59.332;18.034;2023-12-28T08:38:32;99988.28;;;-3.84;63.53
51715;BME280;39115;59.332;18.034;2023-12-28T08:40:52;99970.91;;;-3.84;63.74
51715;BME280;39115;59.332;18.034;2023-12-28T08:43:13;99952.72;;;-3.84;62.90
51715;BME280;39115;59.332;18.034;2023-12-28T08:45:33;99952.66;;;-3.82;63.34
51715;BME280;39115;59.332;18.034;2023-12-28T08:47:56;99951.75;;;-3.81;63.42
51715;BME280;39115;59.332;18.034;2023-12-28T08:50:16;99925.69;;;-3.79;63.06
51715;BME280;39115;59.332;18.034;2023-12-28T08:52:37;99919.59;;;-3.80;63.38
51715;BME280;39115;59.332;18.034;2023-12-28T08:54:57;99915.28;;;-3.79;63.14
51715;BME280;39115;59.332;18.034;2023-12-28T08:57:20;99908.25;;;-3.77;63.55
51715;BME280;39115;59.332;18.034;2023-12-28T08:59:41;99905.59;;;-3.76;62.96
51715;BME280;39115;59.332;18.034;2023-12-28T09:02:02;99902.97;;;-3.76;63.55
51715;BME280;39115;59.332;18.034;2023-12-28T09:04:22;99891.69;;;-3.75;63.53
51715;BME280;39115;59.332;18.034;2023-12-28T09:06:43;99878.59;;;-3.73;62.98
51715;BME280;39115;59.332;18.034;2023-12-28T09:09:04;99884.59;;;-3.71;63.60
51715;BME280;39115;59.332;18.034;2023-12-28T09:11:24;99871.56;;;-3.71;63.11
51715;BME280;39115;59.332;18.034;2023-12-28T09:13:45;99868.91;;;-3.70;62.88
51715;BME280;39115;59.332;18.034;2023-12-28T09:16:08;99867.13;;;-3.69;63.45
51715;BME280;39115;59.332;18.034;2023-12-28T09:18:29;99850.63;;;-3.68;63.21
51715;BME280;39115;59.332;18.034;2023-12-28T09:20:50;99842.78;;;-3.67;63.33
51715;BME280;39115;59.332;18.034;2023-12-28T09:23:10;99835.78;;;-3.66;62.80
51715;BME280;39115;59.332;18.034;2023-12-28T09:25:31;99836.59;;;-3.64;63.30
51715;BME280;39115;59.332;18.034;2023-12-28T09:27:52;99822.88;;;-3.68;63.36
51715;BME280;39115;59.332;18.034;2023-12-28T09:30:13;99820.09;;;-3.65;62.71
51715;BME280;39115;59.332;18.034;2023-12-28T09:32:34;99810.41;;;-3.61;63.41
51715;BME280;39115;59.332;18.034;2023-12-28T09:34:55;99806.06;;;-3.60;63.75
51715;BME280;39115;59.332;18.034;2023-12-28T09:37:15;99794.75;;;-3.59;63.29
51715;BME280;39115;59.332;18.034;2023-12-28T09:39:36;99790.38;;;-3.59;62.87
51715;BME280;39115;59.332;18.034;2023-12-28T09:42:04;99786.78;;;-3.56;63.48
51715;BME280;39115;59.332;18.034;2023-12-28T09:44:28;99775.56;;;-3.57;63.34
51715;BME280;39115;59.332;18.034;2023-12-28T09:46:51;99766.84;;;-3.56;63.17
51715;BME280;39115;59.332;18.034;2023-12-28T09:49:13;99765.94;;;-3.55;63.47
51715;BME280;39115;59.332;18.034;2023-12-28T09:51:35;99753.75;;;-3.54;63.47
51715;BME280;39115;59.332;18.034;2023-12-28T09:53:56;99738.94;;;-3.52;63.17
51715;BME280;39115;59.332;18.034;2023-12-28T09:56:16;99745.81;;;-3.51;63.00
51715;BME280;39115;59.332;18.034;2023-12-28T09:58:37;99746.66;;;-3.51;63.07
51715;BME280;39115;59.332;18.034;2023-12-28T10:01:00;99748.34;;;-3.50;62.93
51715;BME280;39115;59.332;18.034;2023-12-28T10:03:21;99741.38;;;-3.49;63.03
51715;BME280;39115;59.332;18.034;2023-12-28T10:05:43;99738.72;;;-3.47;63.13
51715;BME280;39115;59.332;18.034;2023-12-28T10:08:05;99735.22;;;-3.46;63.41
51715;BME280;39115;59.332;18.034;2023-12-28T10:10:26;99734.22;;;-3.44;63.08
51715;BME280;39115;59.332;18.034;2023-12-28T10:12:46;99722.91;;;-3.43;62.98
51715;BME280;39115;59.332;18.034;2023-12-28T10:15:07;99712.50;;;-3.43;63.51
51715;BME280;39115;59.332;18.034;2023-12-28T10:17:28;99708.94;;;-3.42;63.09
51715;BME280;39115;59.332;18.034;2023-12-28T10:19:48;99700.19;;;-3.39;63.67
51715;BME280;39115;59.332;18.034;2023-12-28T10:22:09;99694.09;;;-3.40;63.10
51715;BME280;39115;59.332;18.034;2023-12-28T10:24:29;99695.72;;;-3.37;63.01
51715;BME280;39115;59.332;18.034;2023-12-28T10:26:52;99682.72;;;-3.37;63.44
51715;BME280;39115;59.332;18.034;2023-12-28T10:29:13;99682.66;;;-3.36;63.40
51715;BME280;39115;59.332;18.034;2023-12-28T10:31:33;99673.94;;;-3.35;63.55
51715;BME280;39115;59.332;18.034;2023-12-28T10:33:57;99667.78;;;-3.34;63.46
51715;BME280;39115;59.332;18.034;2023-12-28T10:36:21;99659.94;;;-3.32;62.81
51715;BME280;39115;59.332;18.034;2023-12-28T10:38:43;99652.88;;;-3.30;63.54
51715;BME280;39115;59.332;18.034;2023-12-28T10:41:09;99653.72;;;-3.29;63.52
51715;BME280;39115;59.332;18.034;2023-12-28T10:43:31;99635.44;;;-3.28;63.36
51715;BME280;39115;59.332;18.034;2023-12-28T10:45:56;99612.78;;;-3.26;62.85
51715;BME280;39115;59.332;18.034;2023-12-28T10:48:27;99604.09;;;-3.26;62.96
51715;BME280;39115;59.332;18.034;2023-12-28T10:50:50;99590.19;;;-3.25;63.03
51715;BME280;39115;59.332;18.034;2023-12-28T10:53:35;99588.34;;;-3.23;63.66
51715;BME280;39115;59.332;18.034;2023-12-28T10:56:13;99577.94;;;-3.23;63.31
51715;BME280;39115;59.332;18.034;2023-12-28T10:58:48;99563.19;;;-3.23;62.93
51715;BME280;39115;59.332;18.034;2023-12-28T11:01:10;99559.56;;;-3.20;63.18
51715;BME280;39115;59.332;18.034;2023-12-28T11:03:34;99543.88;;;-3.19;63.33
51715;BME280;39115;59.332;18.034;2023-12-28T11:05:57;99546.38;;;-3.17;62.99
51715;BME280;39115;59.332;18.034;2023-12-28T11:08:19;99545.47;;;-3.16;62.98
51715;BME280;39115;59.332;18.034;2023-12-28T11:10:41;99541.13;;;-3.15;63.48
51715;BME280;39115;59.332;18.034;2023-12-28T11:13:03;99538.34;;;-3.12;63.16
51715;BME280;39115;59.332;18.034;2023-12-28T11:15:24;99541.72;;;-3.10;63.53
51715;BME280;39115;59.332;18.034;2023-12-28T11:17:46;99535.59;;;-3.09;63.25
51715;BME280;39115;59.332;18.034;2023-12-28T11:20:07;99518.19;;;-3.09;63.52
51715;BME280;39115;59.332;18.034;2023-12-28T11:22:28;99533.69;;;-3.06;62.98
51715;BME280;39115;59.332;18.034;2023-12-28T11:24:52;99520.66;;;-3.06;63.15
51715;BME280;39115;59.332;18.034;2023-12-28T11:27:13;99521.44;;;-3.04;63.48
51715;BME280;39115;59.332;18.034;2023-12-28T11:29:34;99507.47;;;-3.03;63.30
51715;BME280;39115;59.332;18.034;2023-12-28T11:31:54;99496.13;;;-3.02;63.20
51715;BME280;39115;59.332;18.034;2023-12-28T11:34:17;99495.13;;;-2.99;63.35
51715;BME280;39115;59.332;18.034;2023-12-28T11:36:46;99484.66;;;-2.97;63.47
51715;BME280;39115;59.332;18.034;2023-12-28T11:39:09;99481.97;;;-2.96;63.42
51715;BME280;39115;59.332;18.034;2023-12-28T11:41:31;99475.84;;;-2.95;63.32
51715;BME280;39115;59.332;18.034;2023-12-28T11:43:54;99468.78;;;-2.93;63.28
51715;BME280;39115;59.332;18.034;2023-12-28T11:46:14;99465.28;;;-2.92;63.20
51715;BME280;39115;59.332;18.034;2023-12-28T11:48:38;99464.31;;;-2.91;63.13
51715;BME280;39115;59.332;18.034;2023-12-28T11:51:00;99459.88;;;-2.89;63.36
51715;BME280;39115;59.332;18.034;2023-12-28T11:53:21;99456.38;;;-2.88;63.03
51715;BME280;39115;59.332;18.034;2023-12-28T11:55:42;99442.44;;;-2.87;63.24
51715;BME280;39115;59.332;18.034;2023-12-28T11:58:03;99425.88;;;-2.86;63.36
51715;BME280;39115;59.332;18.034;2023-12-28T12:00:23;99428.38;;;-2.84;63.35
51715;BME280;39115;59.332;18.034;2023-12-28T12:02:45;99404.84;;;-2.82;63.38
51715;BME280;39115;59.332;18.034;2023-12-28T12:05:08;99402.19;;;-2.81;63.41
51715;BME280;39115;59.332;18.034;2023-12-28T12:07:29;99395.13;;;-2.79;63.31
51715;BME280;39115;59.332;18.034;2023-12-28T12:09:55;99379.44;;;-2.77;63.25
51715;BME280;39115;59.332;18.034;2023-12-28T12:12:16;99378.56;;;-2.78;63.11